createdAt,value
2023-03-22T00:07:03.041Z,13.23
2023-03-22T00:17:05.193Z,10.70
2023-03-22T00:27:07.462Z,11.90
2023-03-22T00:37:13.179Z,11.43
2023-03-22T00:47:15.548Z,10.87
2023-03-22T00:57:20.929Z,11.60
2023-03-22T01:07:25.888Z,10.50
2023-03-22T01:17:31.417Z,10.53
2023-03-22T01:27:36.824Z,13.67
2023-03-22T01:37:45.102Z,12.17
2023-03-22T01:48:01.937Z,14.07
2023-03-22T01:58:06.536Z,12.17
2023-03-22T02:08:18.412Z,13.47
2023-03-22T02:18:43.610Z,13.90
2023-03-22T02:29:22.610Z,14.87
2023-03-22T02:39:45.781Z,14.20
2023-03-22T02:50:05.502Z,16.63
2023-03-22T03:00:19.406Z,16.70
2023-03-22T03:10:23.134Z,15.50
2023-03-22T03:20:46.727Z,16.17
2023-03-22T03:30:57.725Z,16.33
2023-03-22T03:41:03.255Z,16.43
2023-03-22T03:51:10.779Z,16.87
2023-03-22T04:01:19.852Z,18.10
2023-03-22T04:11:42.468Z,19.13
2023-03-22T04:21:46.028Z,20.20
2023-03-22T04:31:48.706Z,18.27
2023-03-22T04:41:58.214Z,18.20
2023-03-22T04:52:08.130Z,17.17
2023-03-22T05:02:11.649Z,17.53
2023-03-22T05:12:18.485Z,16.43
2023-03-22T05:22:28.586Z,15.57
2023-03-22T05:32:33.053Z,15.30
2023-03-22T05:42:38.021Z,14.30
2023-03-22T05:52:52.368Z,14.33
2023-03-22T06:03:16.799Z,14.50
2023-03-22T06:13:22.571Z,12.20
2023-03-22T06:23:25.815Z,12.43
2023-03-22T06:33:29.122Z,12.43
2023-03-22T06:43:40.149Z,14.63
2023-03-22T06:53:55.896Z,13.95
2023-03-22T07:03:58.513Z,12.73
2023-03-22T07:14:05.637Z,12.80
2023-03-22T07:24:32.876Z,10.00
2023-03-22T07:34:37.312Z,9.25
2023-03-22T07:44:47.429Z,9.13
2023-03-22T07:54:57.944Z,10.05
2023-03-22T08:05:03.112Z,11.10
2023-03-22T08:15:18.468Z,12.27
2023-03-22T08:25:24.669Z,11.07
2023-03-22T08:35:31.469Z,11.02
2023-03-22T08:45:33.873Z,11.70
2023-03-22T08:55:45.084Z,11.70
2023-03-22T09:05:48.707Z,11.77
2023-03-22T09:15:55.510Z,12.50
2023-03-22T09:26:19.582Z,10.80
2023-03-22T09:36:32.517Z,12.23
2023-03-22T09:46:48.905Z,11.73
2023-03-22T09:57:05.903Z,10.48
2023-03-22T10:07:37.515Z,12.68
2023-03-22T10:17:44.916Z,10.80
2023-03-22T10:27:49.380Z,9.18
2023-03-22T10:37:58.035Z,9.82
2023-03-22T10:48:04.656Z,10.13
2023-03-22T10:58:16.127Z,9.15
2023-03-22T11:08:18.789Z,9.55
2023-03-22T11:18:23.958Z,9.30
2023-03-22T11:28:36.878Z,9.30
2023-03-22T11:38:44.937Z,15.75
2023-03-22T11:48:51.237Z,8.90
2023-03-22T11:59:09.926Z,9.45
2023-03-22T12:09:42.180Z,9.32
2023-03-22T12:19:49.856Z,8.02
2023-03-22T12:30:00.199Z,9.05
2023-03-22T12:40:28.054Z,8.63
2023-03-22T12:50:50.192Z,8.50
2023-03-22T13:01:02.065Z,6.97
2023-03-22T13:11:08.052Z,8.02
2023-03-22T13:21:29.973Z,7.45
2023-03-22T13:32:03.021Z,7.22
2023-03-22T13:42:40.971Z,7.90
2023-03-22T13:52:54.663Z,7.55
2023-03-22T14:03:10.855Z,7.65
2023-03-22T14:13:37.220Z,8.07
2023-03-22T14:54:10.389Z,8.48
2023-03-22T15:04:16.092Z,8.32
2023-03-22T15:14:20.948Z,7.80
2023-03-22T15:24:30.686Z,8.55
2023-03-22T15:34:33.511Z,9.60
2023-03-22T15:44:40.949Z,8.63
2023-03-22T15:54:59.947Z,8.23
2023-03-22T16:05:09.390Z,8.52
2023-03-22T16:15:26.389Z,8.65
2023-03-22T16:25:31.632Z,8.95
2023-03-22T16:35:37.367Z,8.30
2023-03-22T16:45:43.731Z,9.30
2023-03-22T16:55:48.436Z,8.60
2023-03-22T17:05:58.321Z,8.98
2023-03-22T17:16:04.941Z,8.70
2023-03-22T17:26:09.964Z,10.18
2023-03-22T17:36:15.974Z,10.70
2023-03-22T17:46:58.230Z,11.18
2023-03-22T17:57:13.852Z,10.48
2023-03-22T18:07:08.498Z,10.73
2023-03-22T18:17:15.829Z,8.80
2023-03-22T18:27:20.299Z,10.50
2023-03-22T18:37:25.901Z,12.20
2023-03-22T18:47:28.165Z,11.80
2023-03-22T18:57:32.422Z,12.82
2023-03-22T19:17:48.562Z,13.98
2023-03-22T19:27:52.048Z,14.52
2023-03-22T19:37:56.642Z,15.25
2023-03-22T19:48:04.186Z,14.15
2023-03-22T19:58:09.300Z,14.23
2023-03-22T20:08:16.968Z,14.40
2023-03-22T20:18:21.702Z,14.13
2023-03-22T20:28:24.408Z,14.40
2023-03-22T20:38:28.936Z,15.52
2023-03-22T20:48:36.535Z,15.27
2023-03-22T20:58:46.301Z,15.52
2023-03-22T21:08:48.591Z,15.63
2023-03-22T21:18:55.504Z,16.63
2023-03-22T21:28:59.009Z,16.73
2023-03-22T21:39:08.582Z,16.02
2023-03-22T21:49:26.286Z,16.65
2023-03-22T21:59:28.585Z,15.63
2023-03-22T22:09:36.847Z,18.17
2023-03-22T22:19:43.473Z,17.25
2023-03-22T22:29:48.093Z,17.65
2023-03-22T22:39:52.741Z,16.80
2023-03-22T22:49:59.668Z,17.42
2023-03-22T23:00:04.591Z,18.70
2023-03-22T23:10:20.729Z,19.20
2023-03-22T23:20:23.656Z,18.98
2023-03-22T23:30:25.885Z,18.55
2023-03-22T23:40:28.827Z,19.25
2023-03-22T23:50:34.170Z,16.83
